Time;durP1;ratioP1;P1;durP2;ratioP2;P2;SDS_P1;SDS_P2;PMS_P1;PMS_P2;Temp;Humidity;BMP_temperature;BMP_pressure;BME280_temperature;BME280_humidity;BME280_pressure;Samples;Min_cycle;Max_cycle;Signal;HPM_P1;HPM_P2
2022/05/04 00:00:14;;;;;;;;;35.33;30.67;;;;;13.93;59.31;101333.13;5029669;28;45415;-72
2022/05/04 00:02:40;;;;;;;;;36.00;30.67;;;;;12.83;58.81;101146.25;4996689;28;45528;-73
2022/05/04 00:05:07;;;;;;;;;32.67;29.00;;;;;14.28;59.42;101378.59;4997472;28;46199;-73
2022/05/04 00:07:32;;;;;;;;;36.33;30.67;;;;;14.20;59.03;101372.31;5012906;28;46566;-70
2022/05/04 00:09:58;;;;;;;;;50.00;35.67;;;;;14.44;58.77;101411.88;4997534;28;45534;-72
2022/05/04 00:12:24;;;;;;;;;40.67;35.67;;;;;14.57;58.81;101429.22;5012925;28;45678;-72
2022/05/04 00:14:50;;;;;;;;;36.33;29.33;;;;;14.50;58.69;101408.59;4997533;28;45834;-73
2022/05/04 00:17:16;;;;;;;;;32.67;30.00;;;;;14.65;58.38;101416.94;5027993;28;46500;-72
2022/05/04 00:19:41;;;;;;;;;35.67;31.67;;;;;13.81;58.58;101291.53;4978219;28;45635;-71
2022/05/04 00:22:06;;;;;;;;;34.00;30.67;;;;;13.83;58.73;101310.97;4978454;28;45522;-72
2022/05/04 00:24:32;;;;;;;;;37.67;33.67;;;;;14.40;58.99;101413.13;5012854;28;46016;-72
2022/05/04 00:26:57;;;;;;;;;39.67;35.67;;;;;14.21;60.02;101401.56;5032529;28;46198;-72
2022/05/04 00:29:22;;;;;;;;;37.67;32.00;;;;;14.19;60.29;101405.41;4999527;28;45387;-70
2022/05/04 00:31:48;;;;;;;;;42.67;36.67;;;;;14.10;60.10;101390.28;5015958;28;45599;-73
2022/05/04 00:34:13;;;;;;;;;33.00;31.67;;;;;14.05;60.28;101392.56;5016249;28;46195;-72
2022/05/04 00:36:39;;;;;;;;;36.67;35.33;;;;;14.19;59.82;101384.00;5016930;28;45520;-70
2022/05/04 00:39:04;;;;;;;;;34.67;31.33;;;;;14.27;59.77;101409.00;5033142;28;45544;-72
2022/05/04 00:41:29;;;;;;;;;38.33;34.33;;;;;14.23;59.43;101380.91;4999534;28;45584;-72
2022/05/04 00:43:55;;;;;;;;;35.67;33.67;;;;;14.31;59.38;101410.38;5032107;28;46401;-72
2022/05/04 00:46:22;;;;;;;;;42.67;37.33;;;;;14.22;59.74;101387.25;4999050;28;46278;-73
2022/05/04 00:48:48;;;;;;;;;39.00;33.67;;;;;14.08;59.83;101392.25;5016252;28;45476;-71
2022/05/04 00:51:13;;;;;;;;;43.67;35.67;;;;;13.83;60.83;101375.97;5016876;28;45389;-71
2022/05/04 00:53:41;;;;;;;;;31.67;30.00;;;;;14.00;60.05;101395.66;5016665;28;45406;-69
2022/05/04 00:56:08;;;;;;;;;37.33;32.00;;;;;13.98;60.16;101390.47;5016605;28;45404;-72
2022/05/04 01:01:24;;;;;;;;;32.00;31.00;;;;;13.58;59.13;101289.31;5016538;28;45261;-72
2022/05/04 01:03:50;;;;;;;;;36.33;30.67;;;;;13.98;59.82;101365.56;4977617;28;46996;-72
2022/05/04 01:06:15;;;;;;;;;28.00;26.33;;;;;14.20;59.69;101410.59;4996464;28;45321;-72
2022/05/04 01:08:41;;;;;;;;;38.67;34.00;;;;;14.22;59.17;101394.41;4996564;28;45837;-71
2022/05/04 01:11:06;;;;;;;;;39.33;35.00;;;;;14.08;59.15;101382.41;4995492;28;45302;-73
2022/05/04 01:13:32;;;;;;;;;37.33;33.67;;;;;14.20;59.35;101405.25;5016073;28;45575;-72
2022/05/04 01:15:57;;;;;;;;;32.67;32.33;;;;;14.18;59.64;101409.91;5016335;28;45434;-73
2022/05/04 01:18:23;;;;;;;;;37.67;32.67;;;;;14.19;59.53;101400.88;5016114;28;45408;-71
2022/05/04 01:20:48;;;;;;;;;40.00;31.67;;;;;14.10;59.53;101385.75;5016442;28;45283;-72
2022/05/04 01:23:13;;;;;;;;;45.67;36.67;;;;;14.19;59.57;101406.22;5015791;28;46180;-72
2022/05/04 01:25:39;;;;;;;;;35.67;31.00;;;;;14.20;59.37;101412.44;4998408;28;45316;-72
2022/05/04 01:28:05;;;;;;;;;38.33;32.00;;;;;13.53;59.34;101302.28;4997749;28;45482;-71
2022/05/04 01:30:32;;;;;;;;;38.33;33.67;;;;;14.16;59.37;101411.88;5014945;28;45354;-71
2022/05/04 01:32:59;;;;;;;;;38.33;33.67;;;;;14.05;59.19;101405.94;5016044;28;46515;-71
2022/05/04 01:35:25;;;;;;;;;35.67;32.00;;;;;13.98;59.18;101386.97;5015921;28;45578;-73
2022/05/04 01:37:50;;;;;;;;;40.33;33.67;;;;;14.04;59.64;101397.06;5016065;28;45402;-71
2022/05/04 01:40:15;;;;;;;;;41.67;37.00;;;;;13.86;59.77;101383.66;5014562;28;45569;-72
2022/05/04 01:42:41;;;;;;;;;34.33;32.33;;;;;13.92;59.87;101398.25;4998643;28;45327;-71
2022/05/04 01:45:09;;;;;;;;;36.00;32.50;;;;;13.90;59.82;101389.56;4978773;28;45342;-72
2022/05/04 01:47:34;;;;;;;;;38.00;31.67;;;;;13.96;60.41;101411.16;4995252;28;45316;-70
2022/05/04 01:50:00;;;;;;;;;39.67;34.00;;;;;13.98;59.96;101414.53;4979141;28;45483;-73
2022/05/04 01:52:26;;;;;;;;;39.00;33.67;;;;;13.82;60.00;101386.81;4996449;28;45303;-71
2022/05/04 01:54:52;;;;;;;;;34.33;31.67;;;;;13.79;60.15;101381.72;4996451;28;45291;-72
2022/05/04 01:57:18;;;;;;;;;38.67;31.33;;;;;13.88;60.06;101394.22;5011611;28;45238;-72
2022/05/04 01:59:44;;;;;;;;;35.67;30.00;;;;;13.90;60.03;101395.75;5015576;28;45440;-71
2022/05/04 02:02:09;;;;;;;;;38.00;34.00;;;;;13.95;59.82;101408.66;5017518;28;45413;-73
2022/05/04 02:04:36;;;;;;;;;38.00;30.33;;;;;13.85;59.90;101391.84;5016037;28;45372;-72
2022/05/04 02:07:01;;;;;;;;;40.00;34.67;;;;;13.78;59.85;101377.38;5015707;28;45350;-71
2022/05/04 02:09:28;;;;;;;;;41.67;35.33;;;;;13.95;60.15;101408.66;5023021;28;45379;-71
2022/05/04 02:11:53;;;;;;;;;41.67;37.67;;;;;13.81;60.05;101403.78;5015860;28;46188;-71
2022/05/04 02:14:20;;;;;;;;;41.67;34.67;;;;;13.69;60.70;101398.66;5017419;28;45378;-72
2022/05/04 02:16:45;;;;;;;;;46.67;35.67;;;;;13.81;60.41;101401.13;5020363;28;45235;-72
2022/05/04 02:19:11;;;;;;;;;42.33;36.67;;;;;13.75;60.61;101393.72;5019402;28;45484;-72
2022/05/04 02:21:37;;;;;;;;;37.00;32.67;;;;;13.68;60.49;101388.97;5019023;28;45821;-71
2022/05/04 02:24:02;;;;;;;;;47.00;35.00;;;;;13.73;60.35;101385.00;5009951;28;45464;-72
2022/05/04 02:26:28;;;;;;;;;41.67;33.67;;;;;13.81;60.28;101395.78;4999238;28;45311;-71
2022/05/04 02:28:54;;;;;;;;;40.67;35.00;;;;;13.98;60.03;101403.84;4981625;28;45489;-70
2022/05/04 02:31:19;;;;;;;;;43.33;33.67;;;;;13.94;59.41;101375.72;4998828;28;46054;-71
2022/05/04 02:33:47;;;;;;;;;41.33;34.67;;;;;14.02;59.65;101372.31;4998961;28;45498;-70
2022/05/04 02:38:57;;;;;;;;;46.00;35.33;;;;;13.82;59.14;101336.84;4999493;28;45395;-71
2022/05/04 02:41:23;;;;;;;;;42.00;36.33;;;;;14.00;59.13;101364.41;5011332;28;45701;-73
2022/05/04 02:43:48;;;;;;;;;41.00;34.00;;;;;14.20;59.11;101394.53;5018389;28;45437;-69
2022/05/04 02:46:19;;;;;;;;;41.67;35.67;;;;;14.20;58.84;101401.72;4993212;28;46992;-70
2022/05/04 02:48:48;;;;;;;;;40.33;32.67;;;;;14.21;59.21;101406.09;4981016;28;45597;-70
2022/05/04 02:51:14;;;;;;;;;41.33;35.33;;;;;14.24;58.85;101392.44;4998004;28;46776;-71
2022/05/04 02:53:40;;;;;;;;;37.00;32.67;;;;;14.12;59.19;101367.72;4980281;28;45323;-72
2022/05/04 02:56:06;;;;;;;;;39.67;36.33;;;;;14.13;58.62;101360.56;4998487;28;45227;-71
2022/05/04 02:58:31;;;;;;;;;37.67;33.67;;;;;14.20;58.23;101365.13;4998993;28;45663;-72
2022/05/04 03:04:07;;;;;;;;;38.00;34.67;;;;;13.72;58.69;101295.13;4999236;28;45236;-71
2022/05/04 03:06:34;;;;;;;;;40.33;35.67;;;;;14.21;58.78;101388.19;5017709;28;45456;-73
2022/05/04 03:09:00;;;;;;;;;37.67;34.33;;;;;14.17;59.01;101381.47;5017520;28;45221;-71
2022/05/04 03:14:09;;;;;;;;;37.67;35.33;;;;;14.24;58.43;101379.91;4998222;28;45288;-73
2022/05/04 03:16:35;;;;;;;;;40.33;34.67;;;;;14.25;58.32;101380.75;4998245;28;45204;-72
2022/05/04 03:19:07;;;;;;;;;39.67;36.67;;;;;13.86;58.27;101311.50;4997075;28;45266;-71
2022/05/04 03:21:33;;;;;;;;;43.67;37.00;;;;;14.16;58.07;101362.91;4998236;28;45993;-73
2022/05/04 03:23:58;;;;;;;;;48.67;38.00;;;;;14.13;58.30;101361.38;5008112;28;45564;-73
2022/05/04 03:26:24;;;;;;;;;44.00;36.33;;;;;14.13;58.00;101365.91;5017249;28;45490;-71
2022/05/04 03:28:50;;;;;;;;;53.33;41.00;;;;;14.21;58.08;101360.63;5018421;28;45525;-73
2022/05/04 03:31:15;;;;;;;;;55.75;46.75;;;;;14.16;58.27;101357.56;5017564;28;45811;-74
2022/05/04 03:33:41;;;;;;;;;58.00;47.00;;;;;13.66;58.20;101286.75;5017785;28;45420;-70
2022/05/04 03:36:06;;;;;;;;;56.67;45.67;;;;;13.96;58.51;101363.06;4999387;28;45427;-71
2022/05/04 03:38:33;;;;;;;;;56.75;46.25;;;;;14.09;58.38;101373.38;4998258;28;45568;-71
2022/05/04 03:40:59;;;;;;;;;60.00;48.75;;;;;14.14;58.30;101365.75;4997793;28;47017;-72
2022/05/04 03:43:24;;;;;;;;;56.25;46.25;;;;;13.99;58.30;101351.22;4996364;28;45393;-73
2022/05/04 03:45:49;;;;;;;;;54.50;43.75;;;;;13.82;59.15;101352.06;4980318;28;45520;-72
2022/05/04 03:48:15;;;;;;;;;68.75;51.50;;;;;13.79;58.72;101338.97;4998284;28;45168;-71
2022/05/04 03:50:40;;;;;;;;;61.50;49.25;;;;;13.83;58.75;101341.22;4997679;28;46128;-71
2022/05/04 03:53:06;;;;;;;;;55.00;46.00;;;;;14.00;58.89;101371.59;4986170;28;45379;-72
2022/05/04 03:55:31;;;;;;;;;57.75;45.25;;;;;13.93;58.53;101365.19;5017260;28;45403;-71
2022/05/04 03:57:57;;;;;;;;;52.00;41.00;;;;;13.98;58.82;101366.41;5033846;28;45416;-70
2022/05/04 04:00:22;;;;;;;;;53.00;44.33;;;;;13.96;58.37;101362.22;5017911;28;46218;-71
2022/05/04 04:02:48;;;;;;;;;48.67;36.33;;;;;14.00;58.29;101369.78;5001193;28;46284;-71
2022/05/04 04:05:13;;;;;;;;;45.00;39.33;;;;;13.92;58.59;101371.53;5012336;28;45596;-71
2022/05/04 04:07:39;;;;;;;;;47.00;33.67;;;;;13.94;58.64;101375.72;5017745;28;45459;-73
2022/05/04 04:10:05;;;;;;;;;38.67;33.33;;;;;13.98;58.52;101373.59;5000781;28;45523;-70
2022/05/04 04:12:30;;;;;;;;;45.67;38.33;;;;;13.92;58.30;101371.53;5017482;28;45495;-71
2022/05/04 04:14:55;;;;;;;;;43.67;36.67;;;;;13.80;58.17;101354.84;5017183;28;45238;-70
2022/05/04 04:17:21;;;;;;;;;42.67;35.33;;;;;13.80;58.78;101372.72;4999055;28;45317;-71
2022/05/04 04:21:50;;;;;;;;;36.67;33.00;;;;;13.65;59.49;101370.56;5016947;28;45750;-72
2022/05/04 04:22:32;;;;;;;;;45.33;38.00;;;;;13.59;58.81;101371.13;4999579;28;45548;-75
2022/05/04 04:24:57;;;;;;;;;42.33;34.33;;;;;13.48;59.24;101373.19;4997147;28;45787;-72
2022/05/04 04:27:22;;;;;;;;;40.00;33.67;;;;;13.48;60.02;101381.19;4997504;28;45315;-72
2022/05/04 04:29:48;;;;;;;;;39.67;34.67;;;;;13.33;59.61;101364.78;4979652;28;48280;-71
2022/05/04 04:32:13;;;;;;;;;42.00;35.00;;;;;13.25;59.99;101384.22;4997233;28;45269;-70
2022/05/04 04:34:38;;;;;;;;;42.33;36.67;;;;;13.07;60.50;101381.44;5002582;28;45301;-71
2022/05/04 04:37:04;;;;;;;;;43.67;34.33;;;;;13.10;60.98;101393.66;5015875;28;45584;-73
2022/05/04 04:39:30;;;;;;;;;45.33;36.00;;;;;13.07;60.87;101381.44;5014787;28;45356;-74
2022/05/04 04:41:55;;;;;;;;;43.33;38.00;;;;;13.08;60.99;101379.63;5015030;28;45716;-72
2022/05/04 04:44:20;;;;;;;;;46.00;36.67;;;;;12.82;61.36;101343.88;5015575;28;45728;-71
2022/05/04 04:46:46;;;;;;;;;40.00;33.67;;;;;13.03;61.26;101385.38;5015623;28;45410;-71
2022/05/04 04:49:11;;;;;;;;;40.00;33.33;;;;;13.09;60.90;101392.81;5016043;28;46837;-72
2022/05/04 04:51:36;;;;;;;;;44.67;36.00;;;;;13.13;60.72;101395.19;5004588;28;45472;-72
2022/05/04 04:54:02;;;;;;;;;44.33;35.33;;;;;13.05;60.74;101391.44;5032188;28;45773;-73
2022/05/04 04:56:27;;;;;;;;;39.67;35.33;;;;;12.80;60.64;101341.31;5016836;28;45254;-70
2022/05/04 04:58:52;;;;;;;;;41.67;35.33;;;;;12.38;60.93;101279.47;5016291;28;45394;-72
2022/05/04 05:01:19;;;;;;;;;44.00;35.00;;;;;13.03;60.64;101372.03;5031640;28;46076;-71
2022/05/04 05:03:44;;;;;;;;;47.00;38.25;;;;;12.97;61.14;101380.59;5014429;28;45417;-70
2022/05/04 05:06:11;;;;;;;;;44.67;34.33;;;;;12.89;61.57;101377.81;4990471;28;45610;-72
2022/05/04 05:08:37;;;;;;;;;42.67;34.67;;;;;12.94;60.99;101386.25;4998134;28;48560;-71
2022/05/04 05:11:02;;;;;;;;;42.33;35.00;;;;;12.34;61.39;101281.59;5007568;28;45272;-72
2022/05/04 05:13:28;;;;;;;;;41.33;34.33;;;;;12.83;61.70;101382.91;4998205;28;45516;-71
2022/05/04 05:16:08;;;;;;;;;44.00;35.33;;;;;12.86;61.88;101402.13;5016604;28;45325;-71
2022/05/04 05:18:34;;;;;;;;;40.00;35.00;;;;;12.06;61.91;101263.81;5016561;28;45584;-74
2022/05/04 05:21:00;;;;;;;;;43.00;34.00;;;;;12.71;61.32;101358.19;4998009;28;45549;-71
2022/05/04 05:23:25;;;;;;;;;42.33;36.67;;;;;12.57;61.50;101311.44;5015818;28;45247;-71
2022/05/04 05:25:51;;;;;;;;;47.00;37.33;;;;;13.18;60.87;101408.97;5015635;28;45508;-72
2022/05/04 05:28:17;;;;;;;;;37.33;33.33;;;;;13.05;61.16;101394.09;5014965;28;46936;-72
2022/05/04 05:30:42;;;;;;;;;47.00;35.67;;;;;13.09;60.93;101387.47;5015777;28;45381;-72
2022/05/04 05:33:08;;;;;;;;;39.67;35.00;;;;;13.11;60.72;101384.66;5016308;28;45335;-71
2022/05/04 05:35:33;;;;;;;;;40.00;33.00;;;;;13.33;60.25;101412.88;5007220;28;45311;-70
2022/05/04 05:37:59;;;;;;;;;44.67;34.33;;;;;13.34;59.48;101393.19;5015885;28;46381;-73
2022/05/04 05:40:24;;;;;;;;;42.00;33.33;;;;;13.45;59.49;101409.03;5031339;28;45538;-72
2022/05/04 05:42:50;;;;;;;;;44.67;35.33;;;;;13.54;59.17;101416.16;5016148;28;45366;-74
2022/05/04 05:45:15;;;;;;;;;42.67;34.33;;;;;13.58;59.06;101406.03;4997717;28;45590;-73
2022/05/04 05:47:40;;;;;;;;;43.00;38.33;;;;;13.52;58.58;101396.78;4997925;28;47007;-75
2022/05/04 05:50:07;;;;;;;;;41.67;35.00;;;;;13.73;58.77;101412.56;4999222;28;45401;-71
2022/05/04 05:52:33;;;;;;;;;42.67;34.67;;;;;13.49;58.48;101390.88;5020490;28;45490;-70
2022/05/04 05:54:58;;;;;;;;;39.33;32.67;;;;;13.53;59.19;101398.44;5019539;28;45373;-72
2022/05/04 05:57:24;;;;;;;;;38.67;33.67;;;;;13.65;58.04;101399.97;5018967;28;46445;-74
2022/05/04 05:59:49;;;;;;;;;38.00;31.67;;;;;13.51;58.08;101375.56;5034459;28;45368;-73
2022/05/04 06:02:15;;;;;;;;;42.33;34.00;;;;;13.83;57.54;101423.22;5001336;28;45281;-71
2022/05/04 06:04:40;;;;;;;;;43.00;34.33;;;;;13.20;57.26;101316.22;5006312;28;45244;-71
2022/05/04 06:07:06;;;;;;;;;37.67;34.00;;;;;13.70;57.67;101418.22;4999045;28;45826;-72
2022/05/04 06:09:31;;;;;;;;;38.67;34.33;;;;;13.65;58.59;101433.84;4999026;28;45429;-72
2022/05/04 06:11:56;;;;;;;;;40.33;34.33;;;;;13.56;57.88;101414.19;4999284;28;45292;-72
2022/05/04 06:14:22;;;;;;;;;42.67;36.00;;;;;13.69;58.03;101420.03;4998078;28;45641;-71
2022/05/04 06:16:49;;;;;;;;;50.67;39.33;;;;;13.57;58.08;101415.88;4998711;28;45440;-73
2022/05/04 06:19:15;;;;;;;;;41.00;31.67;;;;;13.38;58.39;101402.59;4999492;28;45347;-71
2022/05/04 06:21:40;;;;;;;;;46.33;37.00;;;;;13.54;58.34;101442.88;4998812;28;45448;-72
2022/05/04 06:24:06;;;;;;;;;46.33;35.67;;;;;13.48;58.29;101438.13;4977445;28;45620;-72
2022/05/04 06:26:32;;;;;;;;;41.67;34.33;;;;;13.33;58.82;101428.91;4994215;28;46830;-75
2022/05/04 06:28:57;;;;;;;;;42.67;36.67;;;;;13.30;58.90;101439.88;4995006;28;45617;-73
2022/05/04 06:34:06;;;;;;;;;40.00;33.00;;;;;13.40;58.60;101446.00;4992676;28;45673;-72
2022/05/04 06:36:32;;;;;;;;;37.67;33.67;;;;;12.95;58.39;101363.91;4992014;28;48270;-71
2022/05/04 06:38:58;;;;;;;;;41.33;33.67;;;;;13.32;58.31;101403.19;5009091;28;45635;-73
2022/05/04 06:41:23;;;;;;;;;43.33;37.00;;;;;13.75;57.75;101447.16;4993911;28;45533;-69
2022/05/04 06:43:49;;;;;;;;;40.67;34.00;;;;;13.75;57.34;101439.97;4992260;28;45623;-71
2022/05/04 06:46:15;;;;;;;;;44.33;33.67;;;;;13.51;57.73;101403.09;4992959;28;46216;-78
2022/05/04 06:48:41;;;;;;;;;43.00;35.67;;;;;13.48;58.02;101422.09;4997621;28;45495;-74
2022/05/04 06:51:06;;;;;;;;;42.00;34.33;;;;;13.60;58.27;101433.44;5002478;28;45559;-74
2022/05/04 06:53:33;;;;;;;;;44.67;36.33;;;;;13.68;57.63;101450.44;4996632;28;45231;-75
2022/05/04 06:55:59;;;;;;;;;36.33;34.00;;;;;13.65;57.92;101434.69;4985791;28;47352;-70
2022/05/04 06:58:24;;;;;;;;;45.67;34.67;;;;;13.66;57.39;101404.31;5012600;28;46274;-74
2022/05/04 07:00:50;;;;;;;;;39.33;35.67;;;;;13.94;56.68;101426.53;4997510;28;45413;-74
2022/05/04 07:03:15;;;;;;;;;42.33;35.67;;;;;14.26;56.46;101439.44;4996963;28;45622;-72
2022/05/04 07:05:41;;;;;;;;;44.00;36.33;;;;;14.10;56.01;101414.34;4996898;28;45613;-81
2022/05/04 07:08:06;;;;;;;;;48.00;36.33;;;;;14.38;55.86;101447.22;4996091;28;46220;-73
2022/05/04 07:10:32;;;;;;;;;47.33;37.67;;;;;14.29;56.06;101451.66;4998504;28;45506;-73
2022/05/04 07:12:57;;;;;;;;;47.67;39.00;;;;;14.32;56.30;101452.19;5009047;28;45375;-73
2022/05/04 07:15:23;;;;;;;;;47.33;39.67;;;;;13.83;55.88;101362.59;4994077;28;46300;-74
2022/05/04 07:17:48;;;;;;;;;44.67;38.00;;;;;14.50;55.62;101456.75;4997938;28;45417;-72
2022/05/04 07:20:14;;;;;;;;;43.00;35.33;;;;;14.57;55.42;101458.66;4998173;28;45246;-75
2022/05/04 07:22:39;;;;;;;;;44.33;35.67;;;;;14.46;55.08;101439.31;4998470;28;45575;-77
2022/05/04 07:25:05;;;;;;;;;44.00;37.67;;;;;14.30;55.25;101407.88;5015401;28;45316;-71
2022/05/04 07:27:31;;;;;;;;;47.67;36.33;;;;;14.62;55.65;101466.25;4999437;28;45507;-71
2022/05/04 07:29:56;;;;;;;;;44.00;36.33;;;;;14.58;55.14;101435.41;5017648;28;45290;-73
2022/05/04 07:32:22;;;;;;;;;47.67;39.33;;;;;14.43;55.00;101408.38;4999834;28;45572;-74
2022/05/04 07:34:47;;;;;;;;;47.33;36.33;;;;;14.87;54.98;101469.97;5016547;28;45847;-70
2022/05/04 07:37:13;;;;;;;;;41.33;37.00;;;;;14.88;55.27;101468.97;4998138;28;45493;-71
2022/05/04 07:42:26;;;;;;;;;48.33;38.33;;;;;15.43;53.39;101380.31;4998716;28;45219;-71
2022/05/04 07:45:01;;;;;;;;;38.67;32.67;;;;;16.56;51.23;101446.88;5000009;28;46809;-72
2022/05/04 07:47:28;;;;;;;;;38.00;33.00;;;;;16.81;49.52;101480.00;4986779;28;45481;-70
2022/05/04 07:49:55;;;;;;;;;43.00;35.33;;;;;16.80;49.93;101478.31;5017346;28;45402;-73
2022/05/04 07:52:21;;;;;;;;;35.33;31.00;;;;;16.91;49.50;101461.03;5011659;28;45520;-70
2022/05/04 07:54:46;;;;;;;;;43.50;36.50;;;;;16.24;49.45;101359.13;5016699;28;46610;-71
2022/05/04 07:57:11;;;;;;;;;39.67;34.33;;;;;16.79;49.28;101448.94;5013895;28;45439;-71
2022/05/04 07:59:37;;;;;;;;;44.67;35.67;;;;;16.86;49.15;101466.09;5014684;28;45293;-69
2022/05/04 08:04:47;;;;;;;;;51.67;37.00;;;;;17.15;48.21;101439.53;5016576;28;45265;-70
2022/05/04 08:07:13;;;;;;;;;43.33;35.33;;;;;17.27;48.61;101461.53;5015775;28;45468;-69
2022/05/04 08:09:38;;;;;;;;;47.33;38.33;;;;;17.68;48.23;101473.06;5015680;28;45504;-71
2022/05/04 08:12:06;;;;;;;;;47.33;39.33;;;;;17.93;47.31;101471.13;5013766;28;45549;-69
2022/05/04 08:14:32;;;;;;;;;40.67;35.00;;;;;17.73;47.18;101457.25;5015353;28;45527;-70
2022/05/04 08:16:58;;;;;;;;;43.67;35.33;;;;;17.33;47.96;101444.72;5014288;28;45515;-70
2022/05/04 08:19:23;;;;;;;;;46.00;37.00;;;;;17.20;48.47;101452.44;4998598;28;45833;-71
2022/05/04 08:21:48;;;;;;;;;47.00;38.67;;;;;17.12;48.62;101444.41;5016948;28;45524;-70
2022/05/04 08:24:17;;;;;;;;;47.00;37.67;;;;;16.86;48.95;101401.63;5016135;28;45897;-70
2022/05/04 08:26:42;;;;;;;;;52.33;39.33;;;;;17.62;49.10;101473.75;5015579;28;46100;-71
2022/05/04 08:29:08;;;;;;;;;48.33;40.67;;;;;17.50;47.74;101456.28;4998032;28;45267;-73
2022/05/04 08:31:33;;;;;;;;;41.00;35.67;;;;;17.50;48.06;101456.28;5013842;28;45447;-69
2022/05/04 08:33:59;;;;;;;;;50.33;40.00;;;;;17.67;48.24;101455.22;5016461;28;45362;-70
2022/05/04 08:36:24;;;;;;;;;46.67;39.00;;;;;17.88;47.52;101471.66;5009832;28;45341;-69
2022/05/04 08:38:49;;;;;;;;;52.00;38.00;;;;;17.00;49.04;101280.03;4996942;28;45235;-70
2022/05/04 08:41:15;;;;;;;;;42.67;37.00;;;;;18.35;47.22;101465.38;4996748;28;45385;-69
2022/05/04 08:43:43;;;;;;;;;38.67;34.00;;;;;18.01;47.34;101370.69;4996138;28;45420;-68
2022/05/04 08:46:13;;;;;;;;;50.67;38.00;;;;;18.71;46.01;101478.31;4996310;28;45472;-69
2022/05/04 08:48:40;;;;;;;;;42.00;34.33;;;;;18.71;47.25;101437.91;5003799;28;45216;-70
2022/05/04 08:51:07;;;;;;;;;45.00;37.33;;;;;19.32;45.37;101461.09;5015977;28;45283;-71
2022/05/04 08:53:33;;;;;;;;;45.00;34.00;;;;;19.66;45.86;101455.22;5014703;28;47361;-70
2022/05/04 08:55:59;;;;;;;;;42.00;35.00;;;;;20.04;45.74;101466.72;5016189;28;45452;-70
2022/05/04 08:58:24;;;;;;;;;42.67;35.00;;;;;20.11;43.30;101404.72;5015988;28;45299;-70
2022/05/04 09:00:50;;;;;;;;;45.67;37.67;;;;;20.98;43.22;101482.09;5016336;28;45389;-70
2022/05/04 09:03:21;;;;;;;;;41.33;36.00;;;;;21.57;42.06;101471.75;5015995;28;46043;-71
2022/05/04 09:05:47;;;;;;;;;50.00;37.67;;;;;21.89;40.17;101454.03;5015974;28;45408;-71
2022/05/04 09:08:13;;;;;;;;;38.33;34.33;;;;;21.60;39.52;101368.53;4996627;28;45544;-70
2022/05/04 09:10:40;;;;;;;;;41.33;33.00;;;;;22.15;38.64;101459.59;4994709;28;45516;-70
2022/05/04 09:13:07;;;;;;;;;23.67;19.33;;;;;22.53;38.76;101477.22;4994634;28;48262;-69
2022/05/04 09:15:34;;;;;;;;;46.67;35.67;;;;;22.88;37.74;101488.78;4996526;28;45333;-71
2022/05/04 09:18:01;;;;;;;;;45.33;35.33;;;;;22.91;37.04;101480.22;4995772;28;45524;-70
2022/05/04 09:23:14;;;;;;;;;45.67;38.00;;;;;22.80;36.21;101423.88;4995846;28;45487;-71
2022/05/04 09:25:40;;;;;;;;;41.00;36.67;;;;;23.01;35.91;101483.34;4981663;28;46137;-71
2022/05/04 09:28:24;;;;;;;;;44.33;37.33;;;;;23.02;35.54;101477.72;5019225;28;45342;-71
2022/05/04 09:30:52;;;;;;;;;40.00;34.67;;;;;23.14;35.29;101477.09;5018495;28;45460;-71
2022/05/04 09:33:19;;;;;;;;;38.67;34.00;;;;;22.98;34.73;101481.06;5019398;28;45924;-70
2022/05/04 09:35:45;;;;;;;;;47.00;38.67;;;;;22.83;36.07;101472.31;5033482;28;45353;-70
2022/05/04 09:46:42;;;;;;;;;34.67;31.00;;;;;21.76;36.92;101286.16;5017705;28;45461;-70
2022/05/04 09:49:15;;;;;;;;;45.00;35.00;;;;;22.72;36.30;101454.72;5017167;28;45533;-70
2022/05/04 09:51:48;;;;;;;;;42.33;33.33;;;;;22.30;35.66;101445.06;5014075;28;45456;-70
2022/05/04 09:54:21;;;;;;;;;50.67;35.00;;;;;22.13;37.04;101463.53;4997493;28;47506;-70
2022/05/04 09:56:48;;;;;;;;;40.00;35.00;;;;;21.96;37.44;101433.22;4998826;28;45337;-72
2022/05/04 09:59:20;;;;;;;;;40.33;32.67;;;;;22.21;37.33;101454.38;4982069;28;45546;-72
2022/05/04 10:01:48;;;;;;;;;36.33;32.67;;;;;21.99;36.10;101435.53;4981622;28;45562;-71
2022/05/04 10:04:14;;;;;;;;;39.67;30.33;;;;;21.97;36.38;101456.56;4981230;28;47836;-71
2022/05/04 10:06:40;;;;;;;;;40.67;33.67;;;;;21.83;36.62;101454.84;4997522;28;45556;-72
2022/05/04 10:09:07;;;;;;;;;37.00;30.00;;;;;21.68;37.08;101433.31;4996678;28;45358;-72
2022/05/04 10:11:36;;;;;;;;;39.33;32.33;;;;;21.84;37.05;101451.94;4996933;28;45728;-72
2022/05/04 10:14:10;;;;;;;;;36.00;32.33;;;;;21.70;37.30;101427.72;4996217;28;47489;-73
2022/05/04 10:16:41;;;;;;;;;37.00;31.00;;;;;21.74;36.62;101423.56;4979825;28;45514;-73
2022/05/04 10:19:23;;;;;;;;;44.33;35.33;;;;;21.86;36.95;101447.16;5002265;28;45410;-73
2022/05/04 10:21:53;;;;;;;;;40.00;31.33;;;;;21.68;36.69;101430.63;5018442;28;45496;-72
2022/05/04 10:24:24;;;;;;;;;37.00;33.67;;;;;21.78;37.51;101452.72;5018227;28;46265;-71
2022/05/04 10:26:49;;;;;;;;;35.33;31.33;;;;;20.82;37.32;101285.88;5018594;28;45411;-72
2022/05/04 10:32:36;;;;;;;;;35.00;30.67;;;;;21.79;37.27;101448.16;5019004;28;45409;-73
2022/05/04 10:35:08;;;;;;;;;41.00;34.33;;;;;21.58;36.80;101453.66;5018249;28;45813;-71
2022/05/04 10:37:34;;;;;;;;;39.00;33.00;;;;;21.20;37.61;101416.13;5018441;28;45384;-72
2022/05/04 10:40:06;;;;;;;;;39.00;33.00;;;;;21.37;37.89;101463.50;5033818;28;45300;-73
2022/05/04 10:43:02;;;;;;;;;29.67;27.67;;;;;21.45;37.79;101463.38;5018971;28;45496;-73
2022/05/04 10:45:42;;;;;;;;;35.33;33.33;;;;;21.29;37.03;101443.91;5018380;28;46484;-72
2022/05/04 10:48:19;;;;;;;;;28.33;26.33;;;;;21.31;37.48;101461.59;5018494;28;45422;-74
2022/05/04 10:50:57;;;;;;;;;34.00;32.00;;;;;19.11;36.97;101154.53;5017301;28;45331;-74
2022/05/04 10:53:27;;;;;;;;;25.67;25.67;;;;;20.79;37.67;101467.34;5018572;28;45507;-72
2022/05/04 10:56:01;;;;;;;;;26.33;23.33;;;;;20.78;38.57;101476.50;4999997;28;47216;-73
2022/05/04 10:58:34;;;;;;;;;34.33;31.67;;;;;20.76;39.02;101462.34;5018439;28;45424;-71
2022/05/04 11:01:24;;;;;;;;;29.33;26.67;;;;;20.78;38.44;101454.88;5000269;28;45207;-71
2022/05/04 11:04:06;;;;;;;;;24.00;21.33;;;;;20.76;37.64;101443.41;5016959;28;45627;-72
2022/05/04 11:06:34;;;;;;;;;31.00;30.00;;;;;20.75;37.73;101449.84;4996490;28;47654;-72
2022/05/04 11:09:19;;;;;;;;;25.67;23.00;;;;;20.72;38.13;101456.50;4998344;28;45567;-73
2022/05/04 11:11:47;;;;;;;;;32.67;28.00;;;;;20.64;37.54;101459.34;4998367;28;45549;-72
2022/05/04 11:14:14;;;;;;;;;24.67;23.67;;;;;20.43;37.32;101425.03;4997117;28;45519;-74
2022/05/04 11:16:41;;;;;;;;;21.33;19.33;;;;;20.41;37.42;101434.34;5013118;28;48327;-76
2022/05/04 11:19:08;;;;;;;;;20.33;18.33;;;;;20.45;37.18;101436.47;5016352;28;45422;-74
2022/05/04 11:21:35;;;;;;;;;28.00;26.00;;;;;20.52;37.84;101447.34;5016846;28;45376;-71
2022/05/04 11:24:04;;;;;;;;;26.00;24.33;;;;;20.56;37.51;101449.47;5016863;28;45447;-71
2022/05/04 11:26:45;;;;;;;;;28.33;24.33;;;;;20.40;38.56;101436.16;5019784;28;46855;-72
2022/05/04 11:29:19;;;;;;;;;28.00;26.67;;;;;20.49;38.29;101435.06;5018089;28;45325;-72
2022/05/04 11:31:54;;;;;;;;;21.00;20.00;;;;;20.64;38.26;101437.72;5001447;28;45303;-71
2022/05/04 11:34:22;;;;;;;;;22.67;19.00;;;;;20.73;37.87;101447.34;5017905;28;45417;-72
2022/05/04 11:36:50;;;;;;;;;24.67;22.00;;;;;20.67;37.46;101442.72;5018590;28;45903;-72
2022/05/04 11:39:17;;;;;;;;;25.67;23.00;;;;;20.70;37.39;101439.63;5018073;28;45449;-74
2022/05/04 11:41:47;;;;;;;;;23.67;20.67;;;;;20.62;37.61;101428.94;5017583;28;45316;-70